createdAt,value
2022-09-14T00:00:11.456Z,6.72
2022-09-14T00:02:37.992Z,9.85
2022-09-14T00:05:04.640Z,8.82
2022-09-14T00:07:31.046Z,8.60
2022-09-14T00:09:57.412Z,6.82
2022-09-14T00:12:25.039Z,7.55
2022-09-14T00:14:51.392Z,6.72
2022-09-14T00:17:18.057Z,7.43
2022-09-14T00:19:44.434Z,7.40
2022-09-14T00:22:10.828Z,8.32
2022-09-14T00:24:37.202Z,8.82
2022-09-14T00:27:03.765Z,8.15
2022-09-14T00:29:30.483Z,9.32
2022-09-14T00:31:57.270Z,7.22
2022-09-14T00:34:23.706Z,13.52
2022-09-14T00:36:51.079Z,9.77
2022-09-14T00:39:18.334Z,11.88
2022-09-14T00:41:45.921Z,10.88
2022-09-14T00:44:12.658Z,8.50
2022-09-14T00:46:47.095Z,7.25
2022-09-14T00:49:24.240Z,7.38
2022-09-14T00:51:56.556Z,9.82
2022-09-14T00:54:22.965Z,8.77
2022-09-14T00:56:49.730Z,8.77
2022-09-14T00:59:27.358Z,8.90
2022-09-14T01:01:54.114Z,9.43
2022-09-14T01:04:20.527Z,7.93
2022-09-14T01:06:52.623Z,8.40
2022-09-14T01:09:22.109Z,8.10
2022-09-14T01:11:51.916Z,7.95
2022-09-14T01:14:21.336Z,9.68
2022-09-14T01:16:55.557Z,7.80
2022-09-14T01:19:34.191Z,9.73
2022-09-14T01:22:06.161Z,9.50
2022-09-14T01:24:47.787Z,8.27
2022-09-14T01:27:19.815Z,8.73
2022-09-14T01:29:58.046Z,10.60
2022-09-14T01:32:24.388Z,9.20
2022-09-14T01:34:54.257Z,8.07
2022-09-14T01:37:24.272Z,8.25
2022-09-14T01:39:54.129Z,9.07
2022-09-14T01:42:21.713Z,8.57
2022-09-14T01:44:49.521Z,10.52
2022-09-14T01:47:17.769Z,8.77
2022-09-14T01:49:46.849Z,11.75
2022-09-14T01:52:17.058Z,11.48
2022-09-14T01:54:43.395Z,9.70
2022-09-14T01:57:21.551Z,7.15
2022-09-14T01:59:49.458Z,7.95
2022-09-14T02:02:22.558Z,8.82
2022-09-14T02:04:49.036Z,13.40
2022-09-14T02:07:16.107Z,10.40
2022-09-14T02:09:42.795Z,7.97
2022-09-14T02:12:09.279Z,8.48
2022-09-14T02:14:35.786Z,9.80
2022-09-14T02:17:02.380Z,9.18
2022-09-14T02:19:31.226Z,11.57
2022-09-14T02:21:57.543Z,8.73
2022-09-14T02:24:23.902Z,9.95
2022-09-14T02:26:51.293Z,8.70
2022-09-14T02:29:17.742Z,8.23
2022-09-14T02:31:55.063Z,8.73
2022-09-14T02:34:34.287Z,8.05
2022-09-14T02:37:15.750Z,8.23
2022-09-14T02:39:54.359Z,8.80
2022-09-14T02:42:24.354Z,8.68
2022-09-14T02:45:14.473Z,10.82
2022-09-14T02:47:43.594Z,9.52
2022-09-14T02:50:16.031Z,12.73
2022-09-14T02:53:01.549Z,10.70
2022-09-14T02:55:31.462Z,13.63
2022-09-14T02:58:03.710Z,10.55
2022-09-14T03:00:31.137Z,10.68
2022-09-14T03:02:58.021Z,12.65
2022-09-14T03:05:24.579Z,15.57
2022-09-14T03:07:50.917Z,13.35
2022-09-14T03:10:17.313Z,13.32
2022-09-14T03:12:43.763Z,16.95
2022-09-14T03:15:10.581Z,10.88
2022-09-14T03:17:37.037Z,9.30
2022-09-14T03:20:03.988Z,12.63
2022-09-14T03:22:30.305Z,17.80
2022-09-14T03:24:56.683Z,13.25
2022-09-14T03:27:23.061Z,12.70
2022-09-14T03:29:49.369Z,13.73
2022-09-14T03:32:15.762Z,13.95
2022-09-14T03:34:42.138Z,14.40
2022-09-14T03:37:08.499Z,13.25
2022-09-14T03:39:34.805Z,14.07
2022-09-14T03:42:01.158Z,16.63
2022-09-14T03:44:27.646Z,14.77
2022-09-14T03:46:53.993Z,11.63
2022-09-14T03:49:22.223Z,14.82
2022-09-14T03:51:48.741Z,17.90
2022-09-14T03:54:15.051Z,13.38
2022-09-14T03:56:41.558Z,17.77
2022-09-14T03:59:10.672Z,17.88
2022-09-14T04:01:38.062Z,17.65
2022-09-14T04:04:04.533Z,12.55
2022-09-14T04:06:32.684Z,15.13
2022-09-14T04:08:59.266Z,18.48
2022-09-14T04:11:26.012Z,15.93
2022-09-14T04:13:52.749Z,12.82
2022-09-14T04:16:20.810Z,17.63
2022-09-14T04:18:47.753Z,14.43
2022-09-14T04:21:14.995Z,14.77
2022-09-14T04:24:10.262Z,14.82
2022-09-14T04:26:28.897Z,18.35
2022-09-14T04:28:55.625Z,14.30
2022-09-14T04:31:22.399Z,19.38
2022-09-14T04:33:50.867Z,18.70
2022-09-14T04:36:18.528Z,14.88
2022-09-14T04:38:44.978Z,18.83
2022-09-14T04:41:12.663Z,17.67
2022-09-14T04:43:39.191Z,14.88
2022-09-14T04:46:07.279Z,19.77
2022-09-14T04:48:35.150Z,18.17
2022-09-14T04:51:19.086Z,15.77
2022-09-14T04:53:46.897Z,15.52
2022-09-14T04:56:14.033Z,14.90
2022-09-14T04:58:46.250Z,18.15
2022-09-14T05:01:17.586Z,15.77
2022-09-14T05:03:44.213Z,17.92
2022-09-14T05:06:15.131Z,15.65
2022-09-14T05:08:41.902Z,17.60
2022-09-14T05:11:09.005Z,14.38
2022-09-14T05:13:35.822Z,14.48
2022-09-14T05:16:06.345Z,22.08
2022-09-14T05:18:33.175Z,17.02
2022-09-14T05:21:08.545Z,16.83
2022-09-14T05:23:35.413Z,18.00
2022-09-14T05:26:02.043Z,15.82
2022-09-14T05:28:28.632Z,17.85
2022-09-14T05:30:55.402Z,14.98
2022-09-14T05:33:22.145Z,16.15
2022-09-14T05:35:48.856Z,19.85
2022-09-14T05:38:15.515Z,14.05
2022-09-14T05:40:41.862Z,16.15
2022-09-14T05:43:08.417Z,17.88
2022-09-14T05:45:34.938Z,16.55
2022-09-14T05:48:04.654Z,16.77
2022-09-14T05:50:31.794Z,15.65
2022-09-14T05:52:58.078Z,18.63
2022-09-14T05:55:24.399Z,15.65
2022-09-14T05:57:51.123Z,17.80
2022-09-14T06:00:18.078Z,15.43
2022-09-14T06:02:51.717Z,14.88
2022-09-14T06:05:18.522Z,15.40
2022-09-14T06:07:45.003Z,18.77
2022-09-14T06:10:12.064Z,15.23
2022-09-14T06:12:38.885Z,16.40
2022-09-14T06:15:05.445Z,17.42
2022-09-14T06:17:31.853Z,14.43
2022-09-14T06:20:02.245Z,14.05
2022-09-14T06:22:31.325Z,15.10
2022-09-14T06:24:57.797Z,12.15
2022-09-14T06:27:24.146Z,14.18
2022-09-14T06:29:52.194Z,12.60
2022-09-14T06:32:19.104Z,18.35
2022-09-14T06:34:45.785Z,16.30
2022-09-14T06:37:12.474Z,11.98
2022-09-14T06:39:38.745Z,14.50
2022-09-14T06:42:05.273Z,12.68
2022-09-14T06:44:31.673Z,13.27
2022-09-14T06:46:57.979Z,15.75
2022-09-14T06:49:24.555Z,12.57
2022-09-14T06:51:51.124Z,13.98
2022-09-14T06:54:18.519Z,14.48
2022-09-14T06:56:45.538Z,14.90
2022-09-14T06:59:13.446Z,16.17
2022-09-14T07:01:39.773Z,16.23
2022-09-14T07:04:06.238Z,16.30
2022-09-14T07:06:33.795Z,15.75
2022-09-14T07:09:03.345Z,18.85
2022-09-14T07:11:29.781Z,18.73
2022-09-14T07:13:59.498Z,15.38
2022-09-14T07:16:26.237Z,16.90
2022-09-14T07:18:53.347Z,18.77
2022-09-14T07:21:21.150Z,14.40
2022-09-14T07:23:48.123Z,11.95
2022-09-14T07:26:14.425Z,13.95
2022-09-14T07:28:41.390Z,13.93
2022-09-14T07:31:19.089Z,12.18
2022-09-14T07:33:45.708Z,12.65
2022-09-14T07:36:12.718Z,10.82
2022-09-14T07:38:52.047Z,12.15
2022-09-14T07:41:20.546Z,14.18
2022-09-14T07:43:53.610Z,14.68
2022-09-14T07:46:21.152Z,11.93
2022-09-14T07:48:47.969Z,12.23
2022-09-14T07:51:14.475Z,15.40
2022-09-14T07:53:45.682Z,15.13
2022-09-14T07:56:13.510Z,18.38
2022-09-14T07:58:40.097Z,15.63
2022-09-14T08:01:08.601Z,16.95
2022-09-14T08:03:40.140Z,16.20
2022-09-14T08:06:10.835Z,15.82
2022-09-14T08:08:38.445Z,19.42
2022-09-14T08:11:11.043Z,20.50
2022-09-14T08:13:38.706Z,22.83
2022-09-14T08:16:06.110Z,19.27
2022-09-14T08:18:33.278Z,21.88
2022-09-14T08:21:06.730Z,19.83
2022-09-14T08:23:33.163Z,22.15
2022-09-14T08:26:03.782Z,21.55
2022-09-14T08:28:30.559Z,23.20
2022-09-14T08:31:01.338Z,29.98
2022-09-14T08:33:28.029Z,24.70
2022-09-14T08:35:57.907Z,25.48
2022-09-14T08:38:24.682Z,26.55
2022-09-14T08:40:51.491Z,24.88
2022-09-14T08:43:18.574Z,23.17
2022-09-14T08:45:45.822Z,24.90
2022-09-14T08:48:20.230Z,26.02
2022-09-14T08:50:46.609Z,25.58
2022-09-14T08:53:13.002Z,25.35
2022-09-14T08:55:43.694Z,26.15
2022-09-14T08:58:09.971Z,25.08
2022-09-14T09:00:39.327Z,20.33
2022-09-14T09:03:14.759Z,24.10
2022-09-14T09:05:56.761Z,21.73
2022-09-14T09:08:23.060Z,19.02
2022-09-14T09:10:51.684Z,19.48
2022-09-14T09:13:20.336Z,20.40
2022-09-14T09:15:51.070Z,14.60
2022-09-14T09:18:35.528Z,14.40
2022-09-14T09:21:14.938Z,15.75
2022-09-14T09:23:41.883Z,15.45
2022-09-14T09:26:11.076Z,17.05
2022-09-14T09:28:43.625Z,15.05
2022-09-14T09:31:14.597Z,15.32
2022-09-14T09:33:41.608Z,16.67
2022-09-14T09:36:08.460Z,19.58
2022-09-14T09:38:35.131Z,16.55
2022-09-14T09:41:07.609Z,17.80
2022-09-14T09:43:48.923Z,18.92
2022-09-14T09:46:16.048Z,21.65
2022-09-14T09:48:43.911Z,18.38
2022-09-14T09:51:30.544Z,19.10
2022-09-14T09:54:08.964Z,19.20
2022-09-14T09:56:37.789Z,17.17
2022-09-14T09:59:20.817Z,18.63
2022-09-14T10:01:47.328Z,15.95
2022-09-14T10:04:21.681Z,13.48
2022-09-14T10:06:49.136Z,11.70
2022-09-14T10:09:17.136Z,15.70
2022-09-14T10:11:45.336Z,19.15
2022-09-14T10:14:26.645Z,20.45
2022-09-14T10:16:56.014Z,20.58
2022-09-14T10:19:24.701Z,22.45
2022-09-14T10:22:04.451Z,19.80
2022-09-14T10:24:32.052Z,19.90
2022-09-14T10:26:58.513Z,19.58
2022-09-14T10:29:28.808Z,19.27
2022-09-14T10:31:58.936Z,12.13
2022-09-14T10:34:25.319Z,11.25
2022-09-14T10:36:59.217Z,13.05
2022-09-14T10:39:26.538Z,11.20
2022-09-14T10:41:55.605Z,9.07
2022-09-14T10:44:22.674Z,11.80
2022-09-14T10:46:55.025Z,10.23
2022-09-14T10:49:41.086Z,10.23
2022-09-14T10:52:19.378Z,8.82
2022-09-14T10:55:03.168Z,10.05
2022-09-14T10:57:35.262Z,12.13
2022-09-14T11:00:12.849Z,9.57
2022-09-14T11:02:58.352Z,8.32
2022-09-14T11:05:24.812Z,13.52
2022-09-14T11:07:55.473Z,13.65
2022-09-14T11:10:24.937Z,11.48
2022-09-14T11:13:00.960Z,12.50
2022-09-14T11:15:41.205Z,12.30
2022-09-14T11:18:10.475Z,13.70
2022-09-14T11:20:42.857Z,15.00
2022-09-14T11:23:34.197Z,14.40
2022-09-14T11:26:06.950Z,12.15
2022-09-14T11:28:38.200Z,17.05
2022-09-14T11:31:12.380Z,14.93
2022-09-14T11:33:57.892Z,14.93
2022-09-14T11:36:30.209Z,12.52
2022-09-14T11:39:06.584Z,12.35
2022-09-14T11:41:42.175Z,14.25
2022-09-14T11:44:17.626Z,14.07
2022-09-14T11:47:08.517Z,15.68
2022-09-14T11:49:46.665Z,13.13
2022-09-14T11:52:15.896Z,11.50
2022-09-14T11:54:46.590Z,12.20
2022-09-14T11:57:16.753Z,11.20
2022-09-14T11:59:48.563Z,13.82
2022-09-14T12:02:24.511Z,10.05
2022-09-14T12:05:16.884Z,10.30
2022-09-14T12:07:45.737Z,9.27
2022-09-14T12:10:18.012Z,9.80
2022-09-14T12:12:55.092Z,8.52
2022-09-14T12:15:27.445Z,9.30
2022-09-14T12:18:14.059Z,8.85
2022-09-14T12:20:43.158Z,8.93
2022-09-14T12:23:15.587Z,10.85
2022-09-14T12:25:53.712Z,9.65
2022-09-14T12:28:28.320Z,9.15
2022-09-14T12:30:54.690Z,10.23
2022-09-14T12:33:33.458Z,8.00
2022-09-14T12:36:00.511Z,6.30
2022-09-14T12:38:29.933Z,3.90
2022-09-14T12:40:56.923Z,3.90
2022-09-14T12:43:43.589Z,2.65
2022-09-14T12:46:12.962Z,1.90
2022-09-14T12:48:48.569Z,2.10
2022-09-14T12:51:17.902Z,2.17
2022-09-14T12:53:44.435Z,2.40
2022-09-14T12:56:20.575Z,3.58
2022-09-14T12:58:56.014Z,3.72
2022-09-14T13:01:34.297Z,3.63
2022-09-14T13:04:02.301Z,5.30
2022-09-14T13:06:40.398Z,4.32
2022-09-14T13:09:11.941Z,7.47
2022-09-14T13:11:40.376Z,2.83
2022-09-14T13:14:07.198Z,4.43
2022-09-14T13:16:39.619Z,3.75
2022-09-14T13:19:10.159Z,3.45
2022-09-14T13:21:45.872Z,3.88
2022-09-14T13:24:19.500Z,3.20
2022-09-14T13:26:46.062Z,3.83
2022-09-14T13:29:14.384Z,2.65
2022-09-14T13:31:41.202Z,4.47
2022-09-14T13:34:07.750Z,2.60
2022-09-14T13:36:41.059Z,2.25
2022-09-14T13:39:13.256Z,3.47
2022-09-14T13:41:42.432Z,5.22
2022-09-14T13:44:09.014Z,4.25
2022-09-14T13:46:37.435Z,3.47
2022-09-14T13:49:05.951Z,3.65
2022-09-14T13:51:32.349Z,4.40
2022-09-14T13:54:15.645Z,4.80
2022-09-14T13:56:42.113Z,7.15
2022-09-14T13:59:08.627Z,5.30
2022-09-14T14:01:42.859Z,4.30
2022-09-14T14:04:27.532Z,8.70
2022-09-14T14:07:03.076Z,4.90
2022-09-14T14:09:42.534Z,5.05
2022-09-14T14:12:09.293Z,7.75
2022-09-14T14:14:36.059Z,7.25
2022-09-14T14:17:21.310Z,9.50
2022-09-14T14:19:48.485Z,7.43
2022-09-14T14:22:14.789Z,7.35
2022-09-14T14:27:40.601Z,10.82
2022-09-14T14:30:18.037Z,9.00
2022-09-14T14:32:49.316Z,11.48
2022-09-14T14:35:17.285Z,10.32
2022-09-14T14:37:43.699Z,9.50
2022-09-14T14:40:13.382Z,10.98
2022-09-14T14:42:40.301Z,10.65
2022-09-14T14:45:07.525Z,11.02
2022-09-14T14:47:33.825Z,9.75
2022-09-14T14:50:00.392Z,11.85
2022-09-14T14:52:26.856Z,13.73
2022-09-14T14:54:53.205Z,13.02
2022-09-14T14:57:19.559Z,11.40
2022-09-14T14:59:46.108Z,11.18
2022-09-14T15:02:12.453Z,11.05
2022-09-14T15:04:38.739Z,14.23
2022-09-14T15:07:05.085Z,11.00
2022-09-14T15:09:32.484Z,12.43
2022-09-14T15:11:58.895Z,12.30
2022-09-14T15:14:28.413Z,10.98
2022-09-14T15:17:00.444Z,11.23
2022-09-14T15:19:27.078Z,14.27
2022-09-14T15:21:57.279Z,16.65
2022-09-14T15:24:26.511Z,12.77
2022-09-14T15:26:54.216Z,18.50
2022-09-14T15:29:20.693Z,12.27
2022-09-14T15:31:47.285Z,16.88
2022-09-14T15:34:13.696Z,14.48
2022-09-14T15:36:40.070Z,14.70
2022-09-14T15:39:07.051Z,15.50
2022-09-14T15:41:33.514Z,14.80
2022-09-14T15:44:00.217Z,12.23
2022-09-14T15:46:26.592Z,12.23
2022-09-14T15:48:52.905Z,10.57
2022-09-14T15:51:19.770Z,10.98
2022-09-14T15:53:46.421Z,10.88
2022-09-14T15:56:13.804Z,11.93
2022-09-14T15:58:41.955Z,8.52
2022-09-14T16:01:12.382Z,9.68
2022-09-14T16:03:40.245Z,10.40
2022-09-14T16:06:06.988Z,9.85
2022-09-14T16:08:34.969Z,12.90
2022-09-14T16:11:02.013Z,11.63
2022-09-14T16:13:28.810Z,11.23
2022-09-14T16:16:15.467Z,10.18
2022-09-14T16:18:41.902Z,10.32
2022-09-14T16:21:12.101Z,10.43
2022-09-14T16:23:40.153Z,13.52
2022-09-14T16:26:11.149Z,11.20
2022-09-14T16:28:41.474Z,12.75
2022-09-14T16:31:09.399Z,14.48
2022-09-14T16:33:38.435Z,10.05
2022-09-14T16:36:06.847Z,12.55
2022-09-14T16:38:33.660Z,14.30
2022-09-14T16:41:00.957Z,14.70
2022-09-14T16:43:28.034Z,12.05
2022-09-14T16:46:05.221Z,14.50
2022-09-14T16:48:32.453Z,10.60
2022-09-14T16:50:58.944Z,14.05
2022-09-14T16:53:25.323Z,14.85
2022-09-14T16:55:51.685Z,13.77
2022-09-14T16:58:18.161Z,12.13
2022-09-14T17:00:44.534Z,7.80
2022-09-14T17:03:11.041Z,8.38
2022-09-14T17:05:37.414Z,6.97
2022-09-14T17:08:03.790Z,7.25
2022-09-14T17:10:32.878Z,5.47
2022-09-14T17:12:59.266Z,6.15
2022-09-14T17:15:25.552Z,3.92
2022-09-14T17:17:51.935Z,5.75
2022-09-14T17:20:18.401Z,6.18
2022-09-14T17:22:44.820Z,9.15
2022-09-14T17:25:16.219Z,6.40
2022-09-14T17:27:45.698Z,8.43
2022-09-14T17:30:12.411Z,9.07
2022-09-14T17:32:38.804Z,10.00
2022-09-14T17:35:05.392Z,9.75
2022-09-14T17:37:31.714Z,8.45
2022-09-14T17:39:58.107Z,8.50
2022-09-14T17:42:24.451Z,7.65
2022-09-14T17:44:50.769Z,5.07
2022-09-14T17:47:17.146Z,5.97
2022-09-14T17:49:43.509Z,5.90
2022-09-14T17:52:09.875Z,9.60
2022-09-14T17:54:38.742Z,10.90
2022-09-14T17:57:05.260Z,8.98
2022-09-14T17:59:31.591Z,9.07
2022-09-14T18:01:57.975Z,13.73
2022-09-14T18:04:24.397Z,12.15
2022-09-14T18:06:51.009Z,11.40
2022-09-14T18:09:19.137Z,10.75
2022-09-14T18:11:45.972Z,18.63
2022-09-14T18:14:12.971Z,15.98
2022-09-14T18:16:42.409Z,12.27
2022-09-14T18:19:08.887Z,15.63
2022-09-14T18:21:35.230Z,13.63
2022-09-14T18:24:01.741Z,14.48
2022-09-14T18:26:30.524Z,14.40
2022-09-14T18:28:58.577Z,15.80
2022-09-14T18:31:25.533Z,21.10
2022-09-14T18:33:53.289Z,18.63
2022-09-14T18:36:20.479Z,16.75
2022-09-14T18:38:48.628Z,18.73
2022-09-14T18:41:15.838Z,19.65
2022-09-14T18:43:43.123Z,17.88
2022-09-14T18:46:09.772Z,16.58
2022-09-14T18:48:36.172Z,18.65
2022-09-14T18:51:03.852Z,17.77
2022-09-14T18:53:34.383Z,18.45
2022-09-14T18:56:04.727Z,21.75
2022-09-14T18:58:34.726Z,34.60
2022-09-14T19:01:01.748Z,28.95
2022-09-14T19:03:28.117Z,23.17
2022-09-14T19:05:54.494Z,14.05
2022-09-14T19:08:21.329Z,10.30
2022-09-14T19:10:47.632Z,10.85
2022-09-14T19:13:14.000Z,8.85
2022-09-14T19:15:41.062Z,6.45
2022-09-14T19:18:08.355Z,4.00
2022-09-14T19:21:04.785Z,4.68
2022-09-14T19:23:25.113Z,2.08
2022-09-14T19:25:51.538Z,1.95
2022-09-14T19:28:17.846Z,5.47
2022-09-14T19:30:44.222Z,3.40
2022-09-14T19:33:10.540Z,3.42
2022-09-14T19:35:36.958Z,6.93
2022-09-14T19:38:03.249Z,3.55
2022-09-14T19:40:30.123Z,2.33
2022-09-14T19:42:56.523Z,5.90
2022-09-14T19:45:23.138Z,1.33
2022-09-14T19:47:49.540Z,4.43
2022-09-14T19:50:16.023Z,2.35
2022-09-14T19:52:42.354Z,1.38
2022-09-14T19:55:08.973Z,1.38
2022-09-14T19:57:40.255Z,1.50
2022-09-14T20:00:09.569Z,1.15
2022-09-14T20:02:36.119Z,1.75
2022-09-14T20:05:02.572Z,1.88
2022-09-14T20:07:29.165Z,1.77
2022-09-14T20:09:57.938Z,1.67
2022-09-14T20:12:24.280Z,4.03
2022-09-14T20:14:50.635Z,1.88
2022-09-14T20:17:16.974Z,3.15
2022-09-14T20:19:43.374Z,2.20
2022-09-14T20:22:12.605Z,0.65
2022-09-14T20:24:42.503Z,0.50
2022-09-14T20:27:08.932Z,0.80
2022-09-14T20:29:35.760Z,0.65
2022-09-14T20:32:02.739Z,1.33
2022-09-14T20:34:29.198Z,1.67
2022-09-14T20:36:55.860Z,1.33
2022-09-14T20:39:22.882Z,1.45
2022-09-14T20:41:49.586Z,1.98
2022-09-14T20:44:16.906Z,4.72
2022-09-14T20:46:44.034Z,2.10
2022-09-14T20:49:11.947Z,2.95
2022-09-14T20:51:38.655Z,2.97
2022-09-14T20:54:05.557Z,3.25
2022-09-14T20:56:33.188Z,2.85
2022-09-14T20:59:01.063Z,3.72
2022-09-14T21:01:29.451Z,3.60
2022-09-14T21:03:56.178Z,3.53
2022-09-14T21:06:24.169Z,2.60
2022-09-14T21:08:51.020Z,4.07
2022-09-14T21:11:21.898Z,2.63
2022-09-14T21:13:48.891Z,3.13
2022-09-14T21:16:19.454Z,4.57
2022-09-14T21:18:46.808Z,2.17
2022-09-14T21:21:19.178Z,2.80
2022-09-14T21:23:46.079Z,2.40
2022-09-14T21:26:12.750Z,2.33
2022-09-14T21:28:39.775Z,2.10
2022-09-14T21:31:07.519Z,2.10
2022-09-14T21:33:42.707Z,3.92
2022-09-14T21:36:10.427Z,5.60
2022-09-14T21:38:36.815Z,4.35
2022-09-14T21:41:05.058Z,6.20
2022-09-14T21:43:31.426Z,6.60
2022-09-14T21:45:58.269Z,5.50
2022-09-14T21:48:25.162Z,7.82
2022-09-14T21:51:00.379Z,3.28
2022-09-14T21:53:26.741Z,2.03
2022-09-14T21:55:53.094Z,6.30
2022-09-14T21:58:19.484Z,1.70
2022-09-14T22:00:45.828Z,2.38
2022-09-14T22:03:12.209Z,2.42
2022-09-14T22:05:38.660Z,1.60
2022-09-14T22:08:04.963Z,1.35
2022-09-14T22:10:34.102Z,1.98
2022-09-14T22:13:00.768Z,2.70
2022-09-14T22:15:32.009Z,3.10
2022-09-14T22:18:01.998Z,2.47
2022-09-14T22:20:28.629Z,2.75
2022-09-14T22:22:55.058Z,2.92
2022-09-14T22:25:24.960Z,2.80
2022-09-14T22:27:51.992Z,3.55
2022-09-14T22:30:18.942Z,2.75
2022-09-14T22:32:45.235Z,2.75
2022-09-14T22:35:11.559Z,2.35
2022-09-14T22:37:38.533Z,2.08
2022-09-14T22:40:05.578Z,2.35
2022-09-14T22:42:32.514Z,2.40
2022-09-14T22:44:58.857Z,2.92
2022-09-14T22:47:25.208Z,1.95
2022-09-14T22:49:52.615Z,5.32
2022-09-14T22:52:19.044Z,7.57
2022-09-14T22:54:45.363Z,7.03
2022-09-14T22:57:11.699Z,3.53
2022-09-14T22:59:38.935Z,2.95
2022-09-14T23:02:05.413Z,6.03
2022-09-14T23:04:31.866Z,3.03
2022-09-14T23:06:59.923Z,3.35
2022-09-14T23:09:26.475Z,3.15
2022-09-14T23:11:52.972Z,2.55
2022-09-14T23:14:19.274Z,4.35
2022-09-14T23:16:45.984Z,5.75
2022-09-14T23:19:14.541Z,6.35
2022-09-14T23:21:40.897Z,4.47
2022-09-14T23:24:07.355Z,5.45
2022-09-14T23:26:34.217Z,5.55
2022-09-14T23:29:01.786Z,7.53
2022-09-14T23:31:29.165Z,7.57
2022-09-14T23:33:56.595Z,7.82
2022-09-14T23:36:23.372Z,7.07
2022-09-14T23:38:50.093Z,7.28
2022-09-14T23:41:17.031Z,7.25
2022-09-14T23:43:43.610Z,7.85
2022-09-14T23:46:10.046Z,6.95
2022-09-14T23:48:36.382Z,5.82
2022-09-14T23:51:04.217Z,7.60
2022-09-14T23:53:30.631Z,4.13
2022-09-14T23:55:57.391Z,4.50
2022-09-14T23:58:24.153Z,6.38
